sensor_id;sensor_type;location;lat;lon;timestamp;temperature;humidity
41435;DHT22;27177;22.262;114.192;2022-09-09T00:05:18;26.60;97.50
41435;DHT22;27177;22.262;114.192;2022-09-09T00:07:54;26.70;99.80
41435;DHT22;27177;22.262;114.192;2022-09-09T00:10:29;26.70;98.30
41435;DHT22;27177;22.262;114.192;2022-09-09T00:21:35;26.90;98.20
41435;DHT22;27177;22.262;114.192;2022-09-09T00:26:47;27.00;97.70
41435;DHT22;27177;22.262;114.192;2022-09-09T00:29:21;27.10;97.80
41435;DHT22;27177;22.262;114.192;2022-09-09T00:31:53;27.10;97.00
41435;DHT22;27177;22.262;114.192;2022-09-09T00:34:24;27.10;96.80
41435;DHT22;27177;22.262;114.192;2022-09-09T00:36:54;27.20;97.00
41435;DHT22;27177;22.262;114.192;2022-09-09T00:39:42;27.20;98.20
41435;DHT22;27177;22.262;114.192;2022-09-09T00:47:40;27.30;96.80
41435;DHT22;27177;22.262;114.192;2022-09-09T01:03:35;27.70;97.40
41435;DHT22;27177;22.262;114.192;2022-09-09T01:27:27;28.10;99.90
41435;DHT22;27177;22.262;114.192;2022-09-09T01:29:54;28.20;99.90
41435;DHT22;27177;22.262;114.192;2022-09-09T01:32:42;28.10;99.50
41435;DHT22;27177;22.262;114.192;2022-09-09T01:35:26;28.20;98.90
41435;DHT22;27177;22.262;114.192;2022-09-09T01:37:56;28.30;98.60
41435;DHT22;27177;22.262;114.192;2022-09-09T01:40:25;28.30;98.00
41435;DHT22;27177;22.262;114.192;2022-09-09T01:42:53;28.40;97.80
41435;DHT22;27177;22.262;114.192;2022-09-09T01:45:22;28.40;98.10
41435;DHT22;27177;22.262;114.192;2022-09-09T01:47:49;28.40;98.00
41435;DHT22;27177;22.262;114.192;2022-09-09T01:50:20;28.40;97.90
41435;DHT22;27177;22.262;114.192;2022-09-09T01:52:52;28.40;98.20
41435;DHT22;27177;22.262;114.192;2022-09-09T01:55:30;28.50;97.70
41435;DHT22;27177;22.262;114.192;2022-09-09T02:03:56;28.70;97.90
41435;DHT22;27177;22.262;114.192;2022-09-09T02:08:59;28.70;98.50
41435;DHT22;27177;22.262;114.192;2022-09-09T02:11:28;28.80;98.40
41435;DHT22;27177;22.262;114.192;2022-09-09T02:14:06;28.90;98.70
41435;DHT22;27177;22.262;114.192;2022-09-09T02:16:50;29.00;98.20
41435;DHT22;27177;22.262;114.192;2022-09-09T02:19:23;28.90;97.70
41435;DHT22;27177;22.262;114.192;2022-09-09T02:21:55;28.90;97.80
41435;DHT22;27177;22.262;114.192;2022-09-09T02:24:22;28.90;97.80
41435;DHT22;27177;22.262;114.192;2022-09-09T02:26:52;29.00;98.10
41435;DHT22;27177;22.262;114.192;2022-09-09T02:29:24;29.00;98.00
41435;DHT22;27177;22.262;114.192;2022-09-09T02:31:59;29.10;98.10
41435;DHT22;27177;22.262;114.192;2022-09-09T02:34:31;29.20;98.00
41435;DHT22;27177;22.262;114.192;2022-09-09T02:37:00;29.20;97.80
41435;DHT22;27177;22.262;114.192;2022-09-09T02:42:04;29.30;98.10
41435;DHT22;27177;22.262;114.192;2022-09-09T02:44:36;29.30;97.80
41435;DHT22;27177;22.262;114.192;2022-09-09T02:54:59;29.20;97.20
41435;DHT22;27177;22.262;114.192;2022-09-09T03:00:04;29.10;97.90
41435;DHT22;27177;22.262;114.192;2022-09-09T03:02:31;29.10;97.70
41435;DHT22;27177;22.262;114.192;2022-09-09T03:04:57;29.10;97.30
41435;DHT22;27177;22.262;114.192;2022-09-09T03:07:24;29.10;97.20
41435;DHT22;27177;22.262;114.192;2022-09-09T03:15:02;29.30;97.80
41435;DHT22;27177;22.262;114.192;2022-09-09T03:25:08;29.40;97.70
41435;DHT22;27177;22.262;114.192;2022-09-09T03:27:35;29.50;97.40
41435;DHT22;27177;22.262;114.192;2022-09-09T03:30:02;29.60;98.10
41435;DHT22;27177;22.262;114.192;2022-09-09T03:32:29;29.60;98.10
41435;DHT22;27177;22.262;114.192;2022-09-09T03:37:32;29.80;98.10
41435;DHT22;27177;22.262;114.192;2022-09-09T03:40:01;29.90;98.00
41435;DHT22;27177;22.262;114.192;2022-09-09T04:09:27;30.50;97.60
41435;DHT22;27177;22.262;114.192;2022-09-09T04:14:31;30.50;96.90
41435;DHT22;27177;22.262;114.192;2022-09-09T04:19:34;30.60;97.40
41435;DHT22;27177;22.262;114.192;2022-09-09T04:22:01;30.60;96.80
41435;DHT22;27177;22.262;114.192;2022-09-09T04:24:31;30.60;97.10
41435;DHT22;27177;22.262;114.192;2022-09-09T04:29:33;30.80;97.30
41435;DHT22;27177;22.262;114.192;2022-09-09T04:32:01;30.90;97.20
41435;DHT22;27177;22.262;114.192;2022-09-09T04:34:29;30.80;96.70
41435;DHT22;27177;22.262;114.192;2022-09-09T04:36:57;30.90;97.40
41435;DHT22;27177;22.262;114.192;2022-09-09T04:39:25;31.00;97.50
41435;DHT22;27177;22.262;114.192;2022-09-09T04:41:53;31.00;97.30
41435;DHT22;27177;22.262;114.192;2022-09-09T04:44:20;31.00;97.60
41435;DHT22;27177;22.262;114.192;2022-09-09T04:46:47;31.00;97.30
41435;DHT22;27177;22.262;114.192;2022-09-09T04:49:14;31.10;97.30
41435;DHT22;27177;22.262;114.192;2022-09-09T04:51:41;31.00;97.60
41435;DHT22;27177;22.262;114.192;2022-09-09T04:54:09;31.00;97.00
41435;DHT22;27177;22.262;114.192;2022-09-09T04:56:36;30.90;97.30
41435;DHT22;27177;22.262;114.192;2022-09-09T04:59:03;30.80;96.90
41435;DHT22;27177;22.262;114.192;2022-09-09T05:01:31;30.70;97.10
41435;DHT22;27177;22.262;114.192;2022-09-09T05:03:59;30.80;97.70
41435;DHT22;27177;22.262;114.192;2022-09-09T05:06:26;30.70;97.40
41435;DHT22;27177;22.262;114.192;2022-09-09T05:08:53;30.60;97.10
41435;DHT22;27177;22.262;114.192;2022-09-09T05:11:25;30.60;97.20
41435;DHT22;27177;22.262;114.192;2022-09-09T05:14:06;30.70;97.70
41435;DHT22;27177;22.262;114.192;2022-09-09T05:16:33;30.60;97.70
41435;DHT22;27177;22.262;114.192;2022-09-09T05:19:00;30.70;97.70
41435;DHT22;27177;22.262;114.192;2022-09-09T05:21:31;30.70;97.30
41435;DHT22;27177;22.262;114.192;2022-09-09T05:23:58;30.70;97.70
41435;DHT22;27177;22.262;114.192;2022-09-09T05:26:26;30.70;97.60
41435;DHT22;27177;22.262;114.192;2022-09-09T05:28:55;30.60;97.80
41435;DHT22;27177;22.262;114.192;2022-09-09T05:31:23;30.60;97.90
41435;DHT22;27177;22.262;114.192;2022-09-09T05:33:53;30.50;98.30
41435;DHT22;27177;22.262;114.192;2022-09-09T05:36:23;30.50;98.30
41435;DHT22;27177;22.262;114.192;2022-09-09T05:38:50;30.40;98.40
41435;DHT22;27177;22.262;114.192;2022-09-09T05:41:21;30.30;98.80
41435;DHT22;27177;22.262;114.192;2022-09-09T05:43:49;30.30;98.80
41435;DHT22;27177;22.262;114.192;2022-09-09T05:46:19;30.30;99.60
41435;DHT22;27177;22.262;114.192;2022-09-09T05:48:48;30.20;99.90
41435;DHT22;27177;22.262;114.192;2022-09-09T05:51:22;30.30;99.90
41435;DHT22;27177;22.262;114.192;2022-09-09T05:53:50;30.50;99.70
41435;DHT22;27177;22.262;114.192;2022-09-09T05:56:22;30.50;99.40
41435;DHT22;27177;22.262;114.192;2022-09-09T05:58:52;30.50;99.20
41435;DHT22;27177;22.262;114.192;2022-09-09T06:01:32;30.60;99.20
41435;DHT22;27177;22.262;114.192;2022-09-09T06:04:01;30.60;99.50
41435;DHT22;27177;22.262;114.192;2022-09-09T06:06:32;30.60;99.60
41435;DHT22;27177;22.262;114.192;2022-09-09T06:09:04;30.60;99.90
41435;DHT22;27177;22.262;114.192;2022-09-09T06:11:38;30.60;99.90
41435;DHT22;27177;22.262;114.192;2022-09-09T06:14:06;30.50;99.90
41435;DHT22;27177;22.262;114.192;2022-09-09T06:16:34;30.50;99.90
41435;DHT22;27177;22.262;114.192;2022-09-09T06:19:02;30.50;99.90
41435;DHT22;27177;22.262;114.192;2022-09-09T06:21:33;30.30;99.90
41435;DHT22;27177;22.262;114.192;2022-09-09T06:24:04;30.20;99.90
41435;DHT22;27177;22.262;114.192;2022-09-09T06:26:35;30.20;99.90
41435;DHT22;27177;22.262;114.192;2022-09-09T06:29:04;30.20;99.90
41435;DHT22;27177;22.262;114.192;2022-09-09T06:31:32;30.20;99.90
41435;DHT22;27177;22.262;114.192;2022-09-09T06:34:00;30.20;99.90
41435;DHT22;27177;22.262;114.192;2022-09-09T06:36:35;30.20;99.90
41435;DHT22;27177;22.262;114.192;2022-09-09T06:39:03;30.10;99.90
41435;DHT22;27177;22.262;114.192;2022-09-09T06:44:01;30.30;99.90
41435;DHT22;27177;22.262;114.192;2022-09-09T06:46:30;30.30;99.90
41435;DHT22;27177;22.262;114.192;2022-09-09T06:48:59;30.40;99.90
41435;DHT22;27177;22.262;114.192;2022-09-09T06:51:29;30.50;99.90
41435;DHT22;27177;22.262;114.192;2022-09-09T06:53:58;30.50;99.90
41435;DHT22;27177;22.262;114.192;2022-09-09T06:56:27;30.40;99.90
41435;DHT22;27177;22.262;114.192;2022-09-09T06:58:56;30.50;99.90
41435;DHT22;27177;22.262;114.192;2022-09-09T07:01:27;30.50;99.90
41435;DHT22;27177;22.262;114.192;2022-09-09T07:03:56;30.50;99.90
41435;DHT22;27177;22.262;114.192;2022-09-09T07:06:27;30.40;99.90
41435;DHT22;27177;22.262;114.192;2022-09-09T07:08:57;30.40;99.90
41435;DHT22;27177;22.262;114.192;2022-09-09T07:11:28;30.30;99.90
41435;DHT22;27177;22.262;114.192;2022-09-09T07:13:56;30.50;99.90
41435;DHT22;27177;22.262;114.192;2022-09-09T07:16:28;30.20;99.90
41435;DHT22;27177;22.262;114.192;2022-09-09T07:18:57;30.20;99.90
41435;DHT22;27177;22.262;114.192;2022-09-09T07:21:27;30.20;99.90
41435;DHT22;27177;22.262;114.192;2022-09-09T07:23:56;30.20;99.90
41435;DHT22;27177;22.262;114.192;2022-09-09T07:26:29;30.00;99.90
41435;DHT22;27177;22.262;114.192;2022-09-09T07:28:58;30.10;99.90
41435;DHT22;27177;22.262;114.192;2022-09-09T07:31:35;30.10;99.90
41435;DHT22;27177;22.262;114.192;2022-09-09T07:34:06;30.10;99.90
41435;DHT22;27177;22.262;114.192;2022-09-09T07:36:38;30.20;99.90
41435;DHT22;27177;22.262;114.192;2022-09-09T07:39:15;30.30;99.90
41435;DHT22;27177;22.262;114.192;2022-09-09T07:41:48;30.40;99.90
41435;DHT22;27177;22.262;114.192;2022-09-09T07:44:18;30.50;99.90
41435;DHT22;27177;22.262;114.192;2022-09-09T07:46:51;30.50;99.90
41435;DHT22;27177;22.262;114.192;2022-09-09T07:49:19;30.50;99.90
41435;DHT22;27177;22.262;114.192;2022-09-09T07:51:49;30.50;99.90
41435;DHT22;27177;22.262;114.192;2022-09-09T07:57:22;30.50;99.90
41435;DHT22;27177;22.262;114.192;2022-09-09T07:59:59;30.50;99.90
41435;DHT22;27177;22.262;114.192;2022-09-09T08:02:26;30.50;99.90
41435;DHT22;27177;22.262;114.192;2022-09-09T08:05:22;30.50;99.90
41435;DHT22;27177;22.262;114.192;2022-09-09T08:11:26;30.60;99.90
41435;DHT22;27177;22.262;114.192;2022-09-09T08:14:11;30.60;99.90
41435;DHT22;27177;22.262;114.192;2022-09-09T08:20:20;30.70;99.90
41435;DHT22;27177;22.262;114.192;2022-09-09T08:22:50;30.80;99.90
41435;DHT22;27177;22.262;114.192;2022-09-09T08:25:43;30.90;99.90
41435;DHT22;27177;22.262;114.192;2022-09-09T08:28:24;31.20;99.90
41435;DHT22;27177;22.262;114.192;2022-09-09T08:30:52;31.30;99.60
41435;DHT22;27177;22.262;114.192;2022-09-09T08:33:41;31.50;99.40
41435;DHT22;27177;22.262;114.192;2022-09-09T08:36:39;31.60;99.20
41435;DHT22;27177;22.262;114.192;2022-09-09T08:39:37;31.90;98.90
41435;DHT22;27177;22.262;114.192;2022-09-09T09:10:51;30.30;99.40
41435;DHT22;27177;22.262;114.192;2022-09-09T10:03:51;28.10;99.90
41435;DHT22;27177;22.262;114.192;2022-09-09T10:06:36;28.10;99.90
41435;DHT22;27177;22.262;114.192;2022-09-09T10:14:29;27.90;99.90
41435;DHT22;27177;22.262;114.192;2022-09-09T10:17:16;27.90;99.90
41435;DHT22;27177;22.262;114.192;2022-09-09T10:22:47;27.90;99.90
41435;DHT22;27177;22.262;114.192;2022-09-09T10:40:31;27.30;99.90
41435;DHT22;27177;22.262;114.192;2022-09-09T10:55:18;27.00;99.90
41435;DHT22;27177;22.262;114.192;2022-09-09T10:57:50;27.00;99.90
41435;DHT22;27177;22.262;114.192;2022-09-09T11:00:45;26.90;99.90
41435;DHT22;27177;22.262;114.192;2022-09-09T11:03:29;26.90;99.90
41435;DHT22;27177;22.262;114.192;2022-09-09T11:06:05;26.90;99.90
41435;DHT22;27177;22.262;114.192;2022-09-09T11:08:38;26.80;99.90
41435;DHT22;27177;22.262;114.192;2022-09-09T11:16:56;26.70;99.90
41435;DHT22;27177;22.262;114.192;2022-09-09T11:19:42;26.70;99.90
41435;DHT22;27177;22.262;114.192;2022-09-09T11:28:06;26.60;99.90
41435;DHT22;27177;22.262;114.192;2022-09-09T11:42:26;26.40;99.90
41435;DHT22;27177;22.262;114.192;2022-09-09T11:44:53;26.40;99.90
41435;DHT22;27177;22.262;114.192;2022-09-09T11:47:25;26.40;99.90
41435;DHT22;27177;22.262;114.192;2022-09-09T11:52:47;26.40;99.90
41435;DHT22;27177;22.262;114.192;2022-09-09T11:55:28;26.40;99.90
41435;DHT22;27177;22.262;114.192;2022-09-09T11:58:25;26.30;99.90
41435;DHT22;27177;22.262;114.192;2022-09-09T12:00:51;26.30;99.90
41435;DHT22;27177;22.262;114.192;2022-09-09T12:08:57;26.20;99.90
41435;DHT22;27177;22.262;114.192;2022-09-09T12:11:27;26.10;99.90
41435;DHT22;27177;22.262;114.192;2022-09-09T12:13:57;26.10;99.90
41435;DHT22;27177;22.262;114.192;2022-09-09T12:16:38;26.10;99.90
41435;DHT22;27177;22.262;114.192;2022-09-09T12:19:19;26.10;99.90
41435;DHT22;27177;22.262;114.192;2022-09-09T12:21:56;26.00;99.90
41435;DHT22;27177;22.262;114.192;2022-09-09T12:24:40;26.00;99.90
41435;DHT22;27177;22.262;114.192;2022-09-09T12:30:08;25.90;99.90
41435;DHT22;27177;22.262;114.192;2022-09-09T12:32:37;25.90;99.90
41435;DHT22;27177;22.262;114.192;2022-09-09T12:35:17;25.90;99.90
41435;DHT22;27177;22.262;114.192;2022-09-09T12:40:22;25.90;99.90
41435;DHT22;27177;22.262;114.192;2022-09-09T12:42:49;25.90;99.90
41435;DHT22;27177;22.262;114.192;2022-09-09T12:45:23;25.90;99.90
41435;DHT22;27177;22.262;114.192;2022-09-09T12:48:00;25.90;99.90
41435;DHT22;27177;22.262;114.192;2022-09-09T12:50:33;25.90;99.90
41435;DHT22;27177;22.262;114.192;2022-09-09T12:53:29;25.80;99.90
41435;DHT22;27177;22.262;114.192;2022-09-09T12:56:08;25.90;99.90
41435;DHT22;27177;22.262;114.192;2022-09-09T12:58:37;25.80;99.90
41435;DHT22;27177;22.262;114.192;2022-09-09T13:01:29;25.90;99.90
41435;DHT22;27177;22.262;114.192;2022-09-09T13:03:56;25.90;99.90
41435;DHT22;27177;22.262;114.192;2022-09-09T13:06:28;25.90;99.90
41435;DHT22;27177;22.262;114.192;2022-09-09T13:09:00;25.90;99.90
41435;DHT22;27177;22.262;114.192;2022-09-09T13:11:42;25.90;99.90
41435;DHT22;27177;22.262;114.192;2022-09-09T13:14:36;25.90;99.90
41435;DHT22;27177;22.262;114.192;2022-09-09T13:17:15;25.90;99.90
41435;DHT22;27177;22.262;114.192;2022-09-09T13:19:46;25.90;99.90
41435;DHT22;27177;22.262;114.192;2022-09-09T13:22:33;25.90;99.90
41435;DHT22;27177;22.262;114.192;2022-09-09T13:27:35;26.00;99.90
41435;DHT22;27177;22.262;114.192;2022-09-09T13:30:32;26.00;99.90
41435;DHT22;27177;22.262;114.192;2022-09-09T13:35:57;26.00;99.90
41435;DHT22;27177;22.262;114.192;2022-09-09T13:38:28;26.00;99.90
41435;DHT22;27177;22.262;114.192;2022-09-09T13:41:08;26.00;99.90
41435;DHT22;27177;22.262;114.192;2022-09-09T13:43:45;26.00;99.90
41435;DHT22;27177;22.262;114.192;2022-09-09T13:46:39;26.00;99.90
41435;DHT22;27177;22.262;114.192;2022-09-09T13:51:48;26.00;99.90
41435;DHT22;27177;22.262;114.192;2022-09-09T13:54:18;26.00;99.90
41435;DHT22;27177;22.262;114.192;2022-09-09T13:56:46;26.00;99.90
41435;DHT22;27177;22.262;114.192;2022-09-09T13:59:18;26.10;99.90
41435;DHT22;27177;22.262;114.192;2022-09-09T14:01:46;26.10;99.90
41435;DHT22;27177;22.262;114.192;2022-09-09T14:04:24;26.10;99.90
41435;DHT22;27177;22.262;114.192;2022-09-09T14:06:54;26.10;99.90
41435;DHT22;27177;22.262;114.192;2022-09-09T14:09:21;26.10;99.90
41435;DHT22;27177;22.262;114.192;2022-09-09T14:11:52;26.10;99.90
41435;DHT22;27177;22.262;114.192;2022-09-09T14:14:21;26.10;99.90
41435;DHT22;27177;22.262;114.192;2022-09-09T14:16:48;26.10;99.90
41435;DHT22;27177;22.262;114.192;2022-09-09T14:19:16;26.10;99.90
41435;DHT22;27177;22.262;114.192;2022-09-09T14:21:44;26.10;99.90
41435;DHT22;27177;22.262;114.192;2022-09-09T14:24:11;26.10;99.90
41435;DHT22;27177;22.262;114.192;2022-09-09T14:29:14;26.10;99.90
41435;DHT22;27177;22.262;114.192;2022-09-09T14:31:41;26.10;99.90
41435;DHT22;27177;22.262;114.192;2022-09-09T14:34:09;26.10;99.90
41435;DHT22;27177;22.262;114.192;2022-09-09T14:36:41;26.10;99.90
41435;DHT22;27177;22.262;114.192;2022-09-09T14:39:09;26.10;99.90
41435;DHT22;27177;22.262;114.192;2022-09-09T14:41:36;26.10;99.90
41435;DHT22;27177;22.262;114.192;2022-09-09T14:44:07;26.10;99.90
41435;DHT22;27177;22.262;114.192;2022-09-09T14:46:36;26.20;99.90
41435;DHT22;27177;22.262;114.192;2022-09-09T14:49:03;26.10;99.90
41435;DHT22;27177;22.262;114.192;2022-09-09T14:51:30;26.10;99.90
41435;DHT22;27177;22.262;114.192;2022-09-09T14:56:34;26.20;99.90
41435;DHT22;27177;22.262;114.192;2022-09-09T15:32:42;26.10;99.90
41435;DHT22;27177;22.262;114.192;2022-09-09T15:55:55;25.70;99.90
41435;DHT22;27177;22.262;114.192;2022-09-09T15:58:22;25.70;99.90
41435;DHT22;27177;22.262;114.192;2022-09-09T16:00:49;25.70;99.90
41435;DHT22;27177;22.262;114.192;2022-09-09T16:03:17;25.70;99.90
41435;DHT22;27177;22.262;114.192;2022-09-09T16:05:51;25.60;99.90
41435;DHT22;27177;22.262;114.192;2022-09-09T16:08:24;25.60;99.90
41435;DHT22;27177;22.262;114.192;2022-09-09T16:10:55;25.60;99.90
41435;DHT22;27177;22.262;114.192;2022-09-09T16:13:23;25.60;99.90
41435;DHT22;27177;22.262;114.192;2022-09-09T16:15:55;25.60;99.90
41435;DHT22;27177;22.262;114.192;2022-09-09T16:18:22;25.60;99.90
41435;DHT22;27177;22.262;114.192;2022-09-09T16:20:55;25.60;99.90
41435;DHT22;27177;22.262;114.192;2022-09-09T16:23:25;25.60;99.90
41435;DHT22;27177;22.262;114.192;2022-09-09T16:25:55;25.60;99.90
41435;DHT22;27177;22.262;114.192;2022-09-09T16:28:23;25.60;99.90
41435;DHT22;27177;22.262;114.192;2022-09-09T16:30:50;25.50;99.90
41435;DHT22;27177;22.262;114.192;2022-09-09T16:33:18;25.50;99.90
41435;DHT22;27177;22.262;114.192;2022-09-09T16:35:45;25.50;99.90
41435;DHT22;27177;22.262;114.192;2022-09-09T16:38:12;25.50;99.90
41435;DHT22;27177;22.262;114.192;2022-09-09T16:40:41;25.50;99.90
41435;DHT22;27177;22.262;114.192;2022-09-09T16:43:08;25.50;99.90
41435;DHT22;27177;22.262;114.192;2022-09-09T16:45:43;25.50;99.90
41435;DHT22;27177;22.262;114.192;2022-09-09T16:48:11;25.40;99.90
41435;DHT22;27177;22.262;114.192;2022-09-09T16:50:38;25.40;99.90
41435;DHT22;27177;22.262;114.192;2022-09-09T16:53:05;25.40;99.90
41435;DHT22;27177;22.262;114.192;2022-09-09T16:55:39;25.30;99.90
41435;DHT22;27177;22.262;114.192;2022-09-09T16:58:10;25.40;99.90
41435;DHT22;27177;22.262;114.192;2022-09-09T17:00:39;25.30;99.90
41435;DHT22;27177;22.262;114.192;2022-09-09T17:03:06;25.30;99.90
41435;DHT22;27177;22.262;114.192;2022-09-09T17:05:38;25.30;99.90
41435;DHT22;27177;22.262;114.192;2022-09-09T17:08:07;25.30;99.90
41435;DHT22;27177;22.262;114.192;2022-09-09T17:10:41;25.30;99.90
41435;DHT22;27177;22.262;114.192;2022-09-09T17:13:08;25.30;99.90
41435;DHT22;27177;22.262;114.192;2022-09-09T17:15:44;25.30;99.90
41435;DHT22;27177;22.262;114.192;2022-09-09T17:18:12;25.30;99.90
41435;DHT22;27177;22.262;114.192;2022-09-09T17:20:41;25.30;99.90
41435;DHT22;27177;22.262;114.192;2022-09-09T17:23:09;25.30;99.90
41435;DHT22;27177;22.262;114.192;2022-09-09T17:25:37;25.30;99.90
41435;DHT22;27177;22.262;114.192;2022-09-09T17:28:05;25.30;99.90
41435;DHT22;27177;22.262;114.192;2022-09-09T17:30:35;25.20;99.90
41435;DHT22;27177;22.262;114.192;2022-09-09T17:33:06;25.20;99.90
41435;DHT22;27177;22.262;114.192;2022-09-09T17:35:33;25.20;99.90
41435;DHT22;27177;22.262;114.192;2022-09-09T17:38:00;25.20;99.90
41435;DHT22;27177;22.262;114.192;2022-09-09T17:40:27;25.20;99.90
41435;DHT22;27177;22.262;114.192;2022-09-09T17:42:56;25.30;99.90
41435;DHT22;27177;22.262;114.192;2022-09-09T17:45:23;25.30;99.90
41435;DHT22;27177;22.262;114.192;2022-09-09T17:47:53;25.30;99.90
41435;DHT22;27177;22.262;114.192;2022-09-09T17:50:21;25.30;99.90
41435;DHT22;27177;22.262;114.192;2022-09-09T17:52:48;25.30;99.90
41435;DHT22;27177;22.262;114.192;2022-09-09T17:55:15;25.30;99.90
41435;DHT22;27177;22.262;114.192;2022-09-09T17:57:43;25.40;99.90
41435;DHT22;27177;22.262;114.192;2022-09-09T18:00:10;25.40;99.90
41435;DHT22;27177;22.262;114.192;2022-09-09T18:02:37;25.50;99.90
41435;DHT22;27177;22.262;114.192;2022-09-09T18:05:05;25.50;99.90
41435;DHT22;27177;22.262;114.192;2022-09-09T18:07:32;25.50;99.90
41435;DHT22;27177;22.262;114.192;2022-09-09T18:09:59;25.50;99.90
41435;DHT22;27177;22.262;114.192;2022-09-09T18:12:26;25.50;99.90
41435;DHT22;27177;22.262;114.192;2022-09-09T18:14:54;25.50;99.90
41435;DHT22;27177;22.262;114.192;2022-09-09T18:17:21;25.50;99.90
41435;DHT22;27177;22.262;114.192;2022-09-09T18:19:48;25.50;99.90
41435;DHT22;27177;22.262;114.192;2022-09-09T18:22:15;25.50;99.90
41435;DHT22;27177;22.262;114.192;2022-09-09T18:24:45;25.50;99.90
41435;DHT22;27177;22.262;114.192;2022-09-09T18:27:13;25.40;99.90
41435;DHT22;27177;22.262;114.192;2022-09-09T18:29:41;25.40;99.90
41435;DHT22;27177;22.262;114.192;2022-09-09T18:32:08;25.50;99.90
41435;DHT22;27177;22.262;114.192;2022-09-09T18:34:35;25.50;99.90
41435;DHT22;27177;22.262;114.192;2022-09-09T18:37:02;25.50;99.90
41435;DHT22;27177;22.262;114.192;2022-09-09T18:39:30;25.50;99.90
41435;DHT22;27177;22.262;114.192;2022-09-09T18:41:59;25.50;99.90
41435;DHT22;27177;22.262;114.192;2022-09-09T18:44:29;25.50;99.90
41435;DHT22;27177;22.262;114.192;2022-09-09T18:46:56;25.60;99.90
41435;DHT22;27177;22.262;114.192;2022-09-09T18:49:24;25.60;99.90
41435;DHT22;27177;22.262;114.192;2022-09-09T18:51:52;25.60;99.90
41435;DHT22;27177;22.262;114.192;2022-09-09T18:54:21;25.50;99.90
41435;DHT22;27177;22.262;114.192;2022-09-09T18:56:49;25.50;99.90
41435;DHT22;27177;22.262;114.192;2022-09-09T18:59:18;25.50;99.90
41435;DHT22;27177;22.262;114.192;2022-09-09T19:01:47;25.40;99.90
41435;DHT22;27177;22.262;114.192;2022-09-09T19:04:16;25.40;99.90
41435;DHT22;27177;22.262;114.192;2022-09-09T19:06:46;25.30;99.90
41435;DHT22;27177;22.262;114.192;2022-09-09T19:09:16;25.30;99.90
41435;DHT22;27177;22.262;114.192;2022-09-09T19:11:44;25.30;99.90
41435;DHT22;27177;22.262;114.192;2022-09-09T19:14:13;25.30;99.90
41435;DHT22;27177;22.262;114.192;2022-09-09T19:16:41;25.30;99.90
41435;DHT22;27177;22.262;114.192;2022-09-09T19:19:19;25.30;99.90
41435;DHT22;27177;22.262;114.192;2022-09-09T19:21:46;25.20;99.90
41435;DHT22;27177;22.262;114.192;2022-09-09T19:24:17;25.30;99.90
41435;DHT22;27177;22.262;114.192;2022-09-09T19:26:47;25.30;99.90
41435;DHT22;27177;22.262;114.192;2022-09-09T19:29:23;25.30;99.90
41435;DHT22;27177;22.262;114.192;2022-09-09T19:31:51;25.30;99.90
41435;DHT22;27177;22.262;114.192;2022-09-09T19:34:18;25.30;99.90
41435;DHT22;27177;22.262;114.192;2022-09-09T19:36:46;25.30;99.90
41435;DHT22;27177;22.262;114.192;2022-09-09T19:39:13;25.30;99.90
41435;DHT22;27177;22.262;114.192;2022-09-09T19:41:41;25.20;99.90
41435;DHT22;27177;22.262;114.192;2022-09-09T19:44:11;25.30;99.90
41435;DHT22;27177;22.262;114.192;2022-09-09T19:46:40;25.30;99.90
41435;DHT22;27177;22.262;114.192;2022-09-09T19:49:08;25.30;99.90
41435;DHT22;27177;22.262;114.192;2022-09-09T19:51:35;25.30;99.90
41435;DHT22;27177;22.262;114.192;2022-09-09T19:54:05;25.30;99.90
41435;DHT22;27177;22.262;114.192;2022-09-09T19:56:35;25.30;99.90
41435;DHT22;27177;22.262;114.192;2022-09-09T19:59:04;25.30;99.90
41435;DHT22;27177;22.262;114.192;2022-09-09T20:01:33;25.20;99.90
41435;DHT22;27177;22.262;114.192;2022-09-09T20:04:02;25.20;99.90
41435;DHT22;27177;22.262;114.192;2022-09-09T20:06:33;25.30;99.90
41435;DHT22;27177;22.262;114.192;2022-09-09T20:09:01;25.30;99.90
41435;DHT22;27177;22.262;114.192;2022-09-09T20:11:28;25.30;99.90
41435;DHT22;27177;22.262;114.192;2022-09-09T20:13:55;25.30;99.90
41435;DHT22;27177;22.262;114.192;2022-09-09T20:16:25;25.30;99.90
41435;DHT22;27177;22.262;114.192;2022-09-09T20:18:55;25.30;99.90
41435;DHT22;27177;22.262;114.192;2022-09-09T20:21:24;25.30;99.90
41435;DHT22;27177;22.262;114.192;2022-09-09T20:23:53;25.30;99.90
41435;DHT22;27177;22.262;114.192;2022-09-09T20:26:23;25.30;99.90
41435;DHT22;27177;22.262;114.192;2022-09-09T20:28:55;25.30;99.90
41435;DHT22;27177;22.262;114.192;2022-09-09T20:31:27;25.30;99.90
41435;DHT22;27177;22.262;114.192;2022-09-09T20:33:54;25.30;99.90
41435;DHT22;27177;22.262;114.192;2022-09-09T20:36:24;25.30;99.90
41435;DHT22;27177;22.262;114.192;2022-09-09T20:38:59;25.30;99.90
41435;DHT22;27177;22.262;114.192;2022-09-09T20:41:29;25.30;99.90
41435;DHT22;27177;22.262;114.192;2022-09-09T20:44:03;25.30;99.90
41435;DHT22;27177;22.262;114.192;2022-09-09T20:46:35;25.30;99.90
41435;DHT22;27177;22.262;114.192;2022-09-09T20:49:03;25.30;99.90
41435;DHT22;27177;22.262;114.192;2022-09-09T20:51:32;25.30;99.90
41435;DHT22;27177;22.262;114.192;2022-09-09T20:54:02;25.30;99.90
41435;DHT22;27177;22.262;114.192;2022-09-09T20:56:35;25.30;99.90
41435;DHT22;27177;22.262;114.192;2022-09-09T20:59:11;25.20;99.90
41435;DHT22;27177;22.262;114.192;2022-09-09T21:01:39;25.30;99.90
41435;DHT22;27177;22.262;114.192;2022-09-09T21:04:07;25.30;99.90
41435;DHT22;27177;22.262;114.192;2022-09-09T21:06:34;25.30;99.90
41435;DHT22;27177;22.262;114.192;2022-09-09T21:09:02;25.30;99.90
41435;DHT22;27177;22.262;114.192;2022-09-09T21:11:28;25.30;99.90
41435;DHT22;27177;22.262;114.192;2022-09-09T21:13:55;25.30;99.90
41435;DHT22;27177;22.262;114.192;2022-09-09T21:16:22;25.20;99.90
41435;DHT22;27177;22.262;114.192;2022-09-09T21:18:49;25.20;99.90
41435;DHT22;27177;22.262;114.192;2022-09-09T21:21:16;25.20;99.90
41435;DHT22;27177;22.262;114.192;2022-09-09T21:23:47;25.20;99.90
41435;DHT22;27177;22.262;114.192;2022-09-09T21:26:14;25.20;99.90